REV1FK EGNX-EGPK
Flight info
| Callsign | REV1FK |
|---|---|
| Flight time | 2h 53m |
| Altitude | FL240 |
| Route | TNT N57 POL N601 TLA DCT TRN N562 MAC/N0180A179 DCT 5534N00616W STAY1/0125 LAY/N0300F170 DCT MAC N562 TRN |
| Aircraft | B350/M-SBGY/ACEB2 |
Departure
| Time | 2026-04-25 15:16 |
|---|---|
| Airport | East Midlands Airport (EGNX) |
Arrival
| Time | 2026-04-25 18:09 |
|---|---|
| Airport | Glasgow Prestwick Airport (EGPK) |
| Time | Latitude | Longitude | Altitude | Speed | Heading |
|---|---|---|---|---|---|
| 2026-04-25 15:00 | 52.82826 | -1.33898 | 332 ft | 0 kts | 80° |
| 2026-04-25 15:09 | 52.82827 | -1.33892 | 332 ft | 2 kts | 65° |
| 2026-04-25 15:10 | 52.82841 | -1.33853 | 332 ft | 6 kts | 70° |
| 2026-04-25 15:10 | 52.82849 | -1.33765 | 332 ft | 10 kts | 85° |
| 2026-04-25 15:10 | 52.82918 | -1.33551 | 332 ft | 14 kts | 95° |
| 2026-04-25 15:11 | 52.82919 | -1.33372 | 332 ft | 17 kts | 88° |
| 2026-04-25 15:11 | 52.82924 | -1.33172 | 332 ft | 19 kts | 92° |
| 2026-04-25 15:11 | 52.82926 | -1.32964 | 332 ft | 3 kts | 88° |
| 2026-04-25 15:12 | 52.82929 | -1.32864 | 332 ft | 14 kts | 88° |
| 2026-04-25 15:12 | 52.82957 | -1.32762 | 332 ft | 10 kts | 42° |
| 2026-04-25 15:12 | 52.82984 | -1.32722 | 332 ft | 0 kts | 43° |
| 2026-04-25 15:14 | 52.82989 | -1.32713 | 332 ft | 3 kts | 42° |
| 2026-04-25 15:15 | 52.83016 | -1.32672 | 332 ft | 7 kts | 44° |
| 2026-04-25 15:15 | 52.83061 | -1.32602 | 332 ft | 11 kts | 42° |
| 2026-04-25 15:15 | 52.83099 | -1.32659 | 332 ft | 16 kts | 270° |
| 2026-04-25 15:15 | 52.83083 | -1.33384 | 332 ft | 104 kts | 268° |
| 2026-04-25 15:16 | 52.83035 | -1.34777 | 526 ft | 136 kts | 268° |
| 2026-04-25 15:16 | 52.82997 | -1.36391 | 1002 ft | 148 kts | 271° |
| 2026-04-25 15:16 | 52.83447 | -1.39763 | 2011 ft | 170 kts | 297° |
| 2026-04-25 15:17 | 52.84599 | -1.43271 | 3210 ft | 178 kts | 301° |
| 2026-04-25 15:17 | 52.85169 | -1.44980 | 3817 ft | 179 kts | 300° |
| 2026-04-25 15:17 | 52.85743 | -1.46727 | 4436 ft | 180 kts | 300° |
| 2026-04-25 15:18 | 52.86330 | -1.48533 | 5092 ft | 180 kts | 300° |
| 2026-04-25 15:18 | 52.87459 | -1.52032 | 6350 ft | 180 kts | 300° |
| 2026-04-25 15:18 | 52.88039 | -1.53843 | 7012 ft | 180 kts | 300° |
| 2026-04-25 15:19 | 52.88560 | -1.55467 | 7605 ft | 181 kts | 301° |
| 2026-04-25 15:19 | 52.88739 | -1.55954 | 7783 ft | 180 kts | 307° |
| 2026-04-25 15:19 | 52.90438 | -1.58007 | 8869 ft | 181 kts | 339° |
| 2026-04-25 15:19 | 52.91500 | -1.58664 | 9459 ft | 181 kts | 340° |
| 2026-04-25 15:20 | 52.92133 | -1.59040 | 9809 ft | 180 kts | 340° |
| 2026-04-25 15:20 | 52.93447 | -1.59826 | 10481 ft | 181 kts | 340° |
| 2026-04-25 15:20 | 52.94827 | -1.60654 | 11155 ft | 183 kts | 340° |
| 2026-04-25 15:20 | 52.95791 | -1.61232 | 11609 ft | 184 kts | 340° |
| 2026-04-25 15:21 | 52.97294 | -1.62134 | 12299 ft | 185 kts | 339° |
| 2026-04-25 15:21 | 52.98382 | -1.62788 | 12772 ft | 186 kts | 339° |
| 2026-04-25 15:21 | 52.99405 | -1.63404 | 13204 ft | 187 kts | 339° |
| 2026-04-25 15:21 | 53.00806 | -1.64247 | 13787 ft | 188 kts | 339° |
| 2026-04-25 15:22 | 53.01965 | -1.64947 | 14325 ft | 191 kts | 339° |
| 2026-04-25 15:22 | 53.02730 | -1.65408 | 14712 ft | 191 kts | 338° |
| 2026-04-25 15:22 | 53.03888 | -1.66107 | 15310 ft | 189 kts | 338° |
| 2026-04-25 15:22 | 53.05537 | -1.67103 | 16142 ft | 187 kts | 338° |
| 2026-04-25 15:23 | 53.06647 | -1.67785 | 16668 ft | 187 kts | 337° |
| 2026-04-25 15:23 | 53.07625 | -1.68391 | 17102 ft | 187 kts | 337° |
| 2026-04-25 15:23 | 53.09081 | -1.69293 | 17723 ft | 188 kts | 337° |
| 2026-04-25 15:23 | 53.10167 | -1.69965 | 18170 ft | 189 kts | 336° |
| 2026-04-25 15:24 | 53.11003 | -1.70483 | 18503 ft | 190 kts | 336° |
| 2026-04-25 15:24 | 53.13787 | -1.72207 | 19567 ft | 191 kts | 336° |
| 2026-04-25 15:24 | 53.14469 | -1.72630 | 19822 ft | 191 kts | 336° |
| 2026-04-25 15:25 | 53.16174 | -1.73688 | 20432 ft | 191 kts | 336° |
| 2026-04-25 15:25 | 53.17410 | -1.74455 | 20857 ft | 191 kts | 337° |
| 2026-04-25 15:25 | 53.18523 | -1.75147 | 21225 ft | 192 kts | 337° |
| 2026-04-25 15:25 | 53.19791 | -1.75935 | 21631 ft | 192 kts | 337° |
| 2026-04-25 15:26 | 53.21042 | -1.76713 | 22021 ft | 193 kts | 337° |
| 2026-04-25 15:26 | 53.22217 | -1.77444 | 22369 ft | 194 kts | 336° |
| 2026-04-25 15:26 | 53.23466 | -1.78222 | 22732 ft | 194 kts | 336° |
| 2026-04-25 15:26 | 53.24717 | -1.79002 | 23081 ft | 195 kts | 336° |
| 2026-04-25 15:27 | 53.25917 | -1.79752 | 23408 ft | 195 kts | 336° |
| 2026-04-25 15:27 | 53.27190 | -1.80550 | 23750 ft | 196 kts | 336° |
| 2026-04-25 15:27 | 53.29614 | -1.82070 | 24202 ft | 207 kts | 336° |
| 2026-04-25 15:28 | 53.31062 | -1.82979 | 24229 ft | 224 kts | 337° |
| 2026-04-25 15:28 | 53.32526 | -1.83897 | 24227 ft | 237 kts | 337° |
| 2026-04-25 15:28 | 53.33916 | -1.84763 | 24212 ft | 240 kts | 337° |
| 2026-04-25 15:28 | 53.35569 | -1.85792 | 24209 ft | 243 kts | 337° |
| 2026-04-25 15:29 | 53.37077 | -1.86735 | 24207 ft | 245 kts | 337° |
| 2026-04-25 15:29 | 53.38528 | -1.87643 | 24207 ft | 246 kts | 337° |
| 2026-04-25 15:29 | 53.40253 | -1.88726 | 24211 ft | 252 kts | 337° |
| 2026-04-25 15:29 | 53.41815 | -1.89708 | 24213 ft | 257 kts | 337° |
| 2026-04-25 15:30 | 53.43225 | -1.90595 | 24212 ft | 262 kts | 337° |
| 2026-04-25 15:30 | 53.45138 | -1.91800 | 24213 ft | 268 kts | 337° |
| 2026-04-25 15:30 | 53.46862 | -1.92886 | 24213 ft | 273 kts | 337° |
| 2026-04-25 15:30 | 53.48348 | -1.93823 | 24211 ft | 277 kts | 337° |
| 2026-04-25 15:31 | 53.50337 | -1.95079 | 24208 ft | 281 kts | 337° |
| 2026-04-25 15:31 | 53.52101 | -1.96193 | 24208 ft | 285 kts | 337° |
| 2026-04-25 15:31 | 53.53755 | -1.97238 | 24206 ft | 288 kts | 337° |
| 2026-04-25 15:31 | 53.55769 | -1.98513 | 24206 ft | 291 kts | 337° |
| 2026-04-25 15:32 | 53.57558 | -1.99644 | 24203 ft | 294 kts | 337° |
| 2026-04-25 15:32 | 53.59077 | -2.00607 | 24206 ft | 296 kts | 337° |
| 2026-04-25 15:32 | 53.61349 | -2.02048 | 24206 ft | 299 kts | 338° |
| 2026-04-25 15:33 | 53.65022 | -2.04381 | 24204 ft | 303 kts | 338° |
| 2026-04-25 15:33 | 53.67120 | -2.05715 | 24205 ft | 305 kts | 338° |
| 2026-04-25 15:33 | 53.69069 | -2.06956 | 24206 ft | 307 kts | 338° |
| 2026-04-25 15:33 | 53.70832 | -2.08079 | 24205 ft | 308 kts | 338° |
| 2026-04-25 15:34 | 53.72942 | -2.09426 | 24203 ft | 309 kts | 338° |
| 2026-04-25 15:34 | 53.74858 | -2.10651 | 24205 ft | 311 kts | 338° |
| 2026-04-25 15:34 | 53.76690 | -2.11872 | 24206 ft | 311 kts | 336° |
| 2026-04-25 15:34 | 53.78129 | -2.12860 | 24203 ft | 312 kts | 336° |
| 2026-04-25 15:35 | 53.82393 | -2.15788 | 24198 ft | 314 kts | 336° |
| 2026-04-25 15:35 | 53.84646 | -2.17331 | 24198 ft | 315 kts | 336° |
| 2026-04-25 15:35 | 53.86641 | -2.18698 | 24199 ft | 316 kts | 336° |
| 2026-04-25 15:36 | 53.90636 | -2.21435 | 24195 ft | 317 kts | 336° |
| 2026-04-25 15:36 | 53.92638 | -2.22809 | 24195 ft | 317 kts | 336° |
| 2026-04-25 15:36 | 53.94631 | -2.24177 | 24196 ft | 317 kts | 336° |
| 2026-04-25 15:37 | 53.96667 | -2.25576 | 24195 ft | 318 kts | 336° |
| 2026-04-25 15:37 | 53.98482 | -2.26824 | 24200 ft | 318 kts | 336° |
| 2026-04-25 15:37 | 54.00673 | -2.28332 | 24200 ft | 318 kts | 336° |
| 2026-04-25 15:37 | 54.02716 | -2.29740 | 24201 ft | 318 kts | 336° |
| 2026-04-25 15:38 | 54.04732 | -2.31132 | 24202 ft | 318 kts | 336° |
| 2026-04-25 15:38 | 54.06739 | -2.32522 | 24200 ft | 318 kts | 336° |
| 2026-04-25 15:38 | 54.08779 | -2.33935 | 24200 ft | 319 kts | 336° |
| 2026-04-25 15:38 | 54.10612 | -2.35206 | 24200 ft | 319 kts | 336° |
| 2026-04-25 15:39 | 54.12234 | -2.36332 | 24200 ft | 319 kts | 336° |
| 2026-04-25 15:39 | 54.14757 | -2.38084 | 24201 ft | 319 kts | 336° |
| 2026-04-25 15:39 | 54.16765 | -2.39480 | 24203 ft | 319 kts | 336° |
| 2026-04-25 15:39 | 54.18640 | -2.40783 | 24203 ft | 319 kts | 336° |
| 2026-04-25 15:40 | 54.20759 | -2.42254 | 24203 ft | 319 kts | 336° |
| 2026-04-25 15:40 | 54.21447 | -2.42733 | 24202 ft | 319 kts | 336° |
| 2026-04-25 15:40 | 54.24418 | -2.44801 | 24203 ft | 319 kts | 336° |
| 2026-04-25 15:40 | 54.26719 | -2.46405 | 24204 ft | 319 kts | 336° |
| 2026-04-25 15:41 | 54.28756 | -2.47827 | 24204 ft | 319 kts | 336° |
| 2026-04-25 15:41 | 54.30296 | -2.48903 | 24204 ft | 319 kts | 336° |
| 2026-04-25 15:41 | 54.32697 | -2.50582 | 24205 ft | 319 kts | 336° |
| 2026-04-25 15:41 | 54.34705 | -2.52080 | 24191 ft | 318 kts | 329° |
| 2026-04-25 15:42 | 54.36179 | -2.54237 | 24198 ft | 313 kts | 307° |
| 2026-04-25 15:42 | 54.37466 | -2.57436 | 24216 ft | 311 kts | 302° |
| 2026-04-25 15:42 | 54.38589 | -2.60515 | 24210 ft | 312 kts | 300° |
| 2026-04-25 15:42 | 54.39592 | -2.63357 | 24203 ft | 312 kts | 300° |
| 2026-04-25 15:43 | 54.40780 | -2.66701 | 24204 ft | 312 kts | 300° |
| 2026-04-25 15:43 | 54.41824 | -2.69623 | 24199 ft | 312 kts | 300° |
| 2026-04-25 15:43 | 54.42694 | -2.72045 | 24202 ft | 312 kts | 300° |
| 2026-04-25 15:43 | 54.44050 | -2.75811 | 24201 ft | 312 kts | 300° |
| 2026-04-25 15:44 | 54.45184 | -2.78955 | 24196 ft | 313 kts | 300° |
| 2026-04-25 15:44 | 54.46215 | -2.81810 | 24200 ft | 312 kts | 300° |
| 2026-04-25 15:44 | 54.47388 | -2.85062 | 24197 ft | 312 kts | 300° |
| 2026-04-25 15:44 | 54.48524 | -2.88211 | 24198 ft | 312 kts | 300° |
| 2026-04-25 15:45 | 54.49638 | -2.91301 | 24199 ft | 312 kts | 300° |
| 2026-04-25 15:45 | 54.50771 | -2.94447 | 24194 ft | 312 kts | 300° |
| 2026-04-25 15:45 | 54.51905 | -2.97600 | 24194 ft | 312 kts | 300° |
| 2026-04-25 15:45 | 54.52243 | -2.98542 | 24194 ft | 312 kts | 300° |
| 2026-04-25 15:46 | 54.54121 | -3.03772 | 24195 ft | 312 kts | 300° |
| 2026-04-25 15:46 | 54.55239 | -3.06893 | 24195 ft | 312 kts | 300° |
| 2026-04-25 15:46 | 54.56233 | -3.09669 | 24198 ft | 312 kts | 300° |
| 2026-04-25 15:46 | 54.57451 | -3.13076 | 24197 ft | 312 kts | 300° |
| 2026-04-25 15:47 | 54.58568 | -3.16204 | 24200 ft | 312 kts | 300° |
| 2026-04-25 15:47 | 54.59685 | -3.19336 | 24194 ft | 312 kts | 300° |
| 2026-04-25 15:47 | 54.60816 | -3.22509 | 24194 ft | 312 kts | 300° |
| 2026-04-25 15:47 | 54.61921 | -3.25617 | 24199 ft | 312 kts | 300° |
| 2026-04-25 15:48 | 54.63029 | -3.28735 | 24202 ft | 312 kts | 300° |
| 2026-04-25 15:48 | 54.64158 | -3.31917 | 24196 ft | 312 kts | 300° |
| 2026-04-25 15:48 | 54.65127 | -3.34651 | 24201 ft | 312 kts | 300° |
| 2026-04-25 15:48 | 54.66343 | -3.38086 | 24195 ft | 313 kts | 300° |
| 2026-04-25 15:49 | 54.67474 | -3.41287 | 24198 ft | 313 kts | 300° |
| 2026-04-25 15:49 | 54.68548 | -3.44328 | 24198 ft | 313 kts | 300° |
| 2026-04-25 15:49 | 54.69661 | -3.47486 | 24199 ft | 313 kts | 300° |
| 2026-04-25 15:49 | 54.70800 | -3.50719 | 24201 ft | 313 kts | 300° |
| 2026-04-25 15:50 | 54.71918 | -3.53899 | 24197 ft | 314 kts | 300° |
| 2026-04-25 15:50 | 54.73044 | -3.57104 | 24203 ft | 313 kts | 300° |
| 2026-04-25 15:50 | 54.74171 | -3.60317 | 24202 ft | 314 kts | 300° |
| 2026-04-25 15:50 | 54.75282 | -3.63490 | 24201 ft | 314 kts | 300° |
| 2026-04-25 15:51 | 54.76409 | -3.66710 | 24200 ft | 314 kts | 298° |
| 2026-04-25 15:51 | 54.77165 | -3.68872 | 24198 ft | 314 kts | 299° |
| 2026-04-25 15:51 | 54.78625 | -3.73051 | 24200 ft | 314 kts | 298° |
| 2026-04-25 15:51 | 54.79761 | -3.76310 | 24195 ft | 314 kts | 299° |
| 2026-04-25 15:52 | 54.80883 | -3.79532 | 24194 ft | 315 kts | 298° |
| 2026-04-25 15:52 | 54.82002 | -3.82752 | 24199 ft | 315 kts | 299° |
| 2026-04-25 15:52 | 54.83127 | -3.85994 | 24193 ft | 315 kts | 298° |
| 2026-04-25 15:52 | 54.84245 | -3.89219 | 24194 ft | 315 kts | 299° |
| 2026-04-25 15:53 | 54.85367 | -3.92458 | 24194 ft | 315 kts | 298° |
| 2026-04-25 15:53 | 54.86495 | -3.95722 | 24191 ft | 315 kts | 299° |
| 2026-04-25 15:53 | 54.87617 | -3.98973 | 24199 ft | 315 kts | 299° |
| 2026-04-25 15:53 | 54.88732 | -4.02205 | 24194 ft | 315 kts | 298° |
| 2026-04-25 15:54 | 54.89850 | -4.05454 | 24200 ft | 315 kts | 299° |
| 2026-04-25 15:54 | 54.90969 | -4.08707 | 24200 ft | 316 kts | 299° |
| 2026-04-25 15:54 | 54.92071 | -4.11916 | 24195 ft | 316 kts | 299° |
| 2026-04-25 15:54 | 54.93189 | -4.15173 | 24200 ft | 316 kts | 298° |
| 2026-04-25 15:55 | 54.94313 | -4.18456 | 24193 ft | 316 kts | 298° |
| 2026-04-25 15:55 | 54.95429 | -4.21717 | 24195 ft | 316 kts | 298° |
| 2026-04-25 15:55 | 54.96545 | -4.24985 | 24192 ft | 316 kts | 298° |
| 2026-04-25 15:55 | 54.97663 | -4.28263 | 24194 ft | 315 kts | 298° |
| 2026-04-25 15:56 | 54.98774 | -4.31523 | 24194 ft | 315 kts | 298° |
| 2026-04-25 15:56 | 54.99885 | -4.34789 | 24193 ft | 315 kts | 298° |
| 2026-04-25 15:56 | 55.00983 | -4.38021 | 24193 ft | 315 kts | 298° |
| 2026-04-25 15:56 | 55.02099 | -4.41309 | 24192 ft | 315 kts | 298° |
| 2026-04-25 15:57 | 55.03207 | -4.44580 | 24192 ft | 315 kts | 298° |
| 2026-04-25 15:57 | 55.04310 | -4.47838 | 24192 ft | 315 kts | 298° |
| 2026-04-25 15:57 | 55.05412 | -4.51100 | 24196 ft | 315 kts | 298° |
| 2026-04-25 15:57 | 55.06518 | -4.54377 | 24188 ft | 315 kts | 298° |
| 2026-04-25 15:58 | 55.07617 | -4.57636 | 24198 ft | 315 kts | 298° |
| 2026-04-25 15:58 | 55.08718 | -4.60908 | 24196 ft | 314 kts | 298° |
| 2026-04-25 15:58 | 55.09826 | -4.64205 | 24191 ft | 314 kts | 298° |
| 2026-04-25 15:58 | 55.10710 | -4.66838 | 24194 ft | 314 kts | 297° |
| 2026-04-25 15:59 | 55.11921 | -4.70451 | 24192 ft | 314 kts | 297° |
| 2026-04-25 15:59 | 55.13018 | -4.73727 | 24191 ft | 313 kts | 297° |
| 2026-04-25 15:59 | 55.14087 | -4.76920 | 24195 ft | 313 kts | 297° |
| 2026-04-25 15:59 | 55.15178 | -4.80185 | 24195 ft | 313 kts | 297° |
| 2026-04-25 16:00 | 55.16286 | -4.83506 | 24185 ft | 313 kts | 297° |
| 2026-04-25 16:00 | 55.18476 | -4.90087 | 24189 ft | 312 kts | 297° |
| 2026-04-25 16:00 | 55.19574 | -4.93394 | 24186 ft | 312 kts | 298° |
| 2026-04-25 16:01 | 55.20659 | -4.96666 | 24186 ft | 312 kts | 298° |
| 2026-04-25 16:01 | 55.21746 | -4.99946 | 24194 ft | 312 kts | 298° |
| 2026-04-25 16:01 | 55.22823 | -5.03204 | 24185 ft | 312 kts | 297° |
| 2026-04-25 16:01 | 55.23901 | -5.06471 | 24188 ft | 312 kts | 297° |
| 2026-04-25 16:02 | 55.24986 | -5.09764 | 24184 ft | 311 kts | 297° |
| 2026-04-25 16:02 | 55.26082 | -5.13088 | 24184 ft | 311 kts | 297° |
| 2026-04-25 16:02 | 55.27133 | -5.16281 | 24186 ft | 311 kts | 297° |
| 2026-04-25 16:02 | 55.28206 | -5.19547 | 24180 ft | 311 kts | 297° |
| 2026-04-25 16:03 | 55.29280 | -5.22821 | 24186 ft | 311 kts | 297° |
| 2026-04-25 16:03 | 55.30345 | -5.26072 | 24182 ft | 311 kts | 297° |
| 2026-04-25 16:03 | 55.31417 | -5.29346 | 24181 ft | 311 kts | 297° |
| 2026-04-25 16:03 | 55.32495 | -5.32646 | 24178 ft | 311 kts | 297° |
| 2026-04-25 16:04 | 55.33561 | -5.35915 | 24180 ft | 311 kts | 297° |
| 2026-04-25 16:04 | 55.34634 | -5.39211 | 24182 ft | 312 kts | 297° |
| 2026-04-25 16:04 | 55.35658 | -5.42361 | 24061 ft | 316 kts | 297° |
| 2026-04-25 16:04 | 55.36778 | -5.45808 | 23660 ft | 323 kts | 297° |
| 2026-04-25 16:05 | 55.37894 | -5.49246 | 23271 ft | 324 kts | 297° |
| 2026-04-25 16:05 | 55.39011 | -5.52692 | 22888 ft | 325 kts | 297° |
| 2026-04-25 16:05 | 55.41234 | -5.59559 | 22131 ft | 326 kts | 297° |
| 2026-04-25 16:06 | 55.42364 | -5.63025 | 21748 ft | 327 kts | 298° |
| 2026-04-25 16:06 | 55.43616 | -5.66293 | 21369 ft | 330 kts | 305° |
| 2026-04-25 16:06 | 55.45200 | -5.69208 | 20996 ft | 332 kts | 315° |
| 2026-04-25 16:06 | 55.46994 | -5.71811 | 20625 ft | 334 kts | 319° |
| 2026-04-25 16:07 | 55.48769 | -5.74406 | 20243 ft | 333 kts | 315° |
| 2026-04-25 16:07 | 55.49336 | -5.75332 | 20116 ft | 332 kts | 313° |
| 2026-04-25 16:07 | 55.52000 | -5.80218 | 19493 ft | 332 kts | 310° |
| 2026-04-25 16:07 | 55.53579 | -5.83150 | 19116 ft | 332 kts | 311° |
| 2026-04-25 16:08 | 55.55182 | -5.86043 | 18742 ft | 332 kts | 311° |
| 2026-04-25 16:08 | 55.56802 | -5.88951 | 18367 ft | 332 kts | 312° |
| 2026-04-25 16:08 | 55.58413 | -5.91818 | 18003 ft | 332 kts | 313° |
| 2026-04-25 16:08 | 55.60015 | -5.94657 | 17913 ft | 323 kts | 313° |
| 2026-04-25 16:09 | 55.61591 | -5.97444 | 17882 ft | 314 kts | 312° |
| 2026-04-25 16:09 | 55.63118 | -6.00102 | 17877 ft | 306 kts | 314° |
| 2026-04-25 16:09 | 55.64752 | -6.02455 | 17886 ft | 302 kts | 323° |
| 2026-04-25 16:09 | 55.66629 | -6.04051 | 17889 ft | 300 kts | 341° |
| 2026-04-25 16:10 | 55.68652 | -6.04629 | 17891 ft | 294 kts | 356° |
| 2026-04-25 16:10 | 55.70650 | -6.04408 | 17896 ft | 286 kts | 8° |
| 2026-04-25 16:10 | 55.72488 | -6.03652 | 17896 ft | 278 kts | 14° |
| 2026-04-25 16:10 | 55.74349 | -6.02798 | 17898 ft | 271 kts | 14° |
| 2026-04-25 16:11 | 55.76151 | -6.01959 | 17900 ft | 267 kts | 15° |
| 2026-04-25 16:11 | 55.77790 | -6.00540 | 17912 ft | 263 kts | 30° |
| 2026-04-25 16:11 | 55.79355 | -5.98894 | 17897 ft | 261 kts | 28° |
| 2026-04-25 16:11 | 55.81070 | -5.98256 | 17895 ft | 252 kts | 350° |
| 2026-04-25 16:12 | 55.82586 | -5.99541 | 17911 ft | 244 kts | 311° |
| 2026-04-25 16:12 | 55.83303 | -6.02148 | 17917 ft | 237 kts | 272° |
| 2026-04-25 16:12 | 55.82711 | -6.04633 | 17914 ft | 226 kts | 210° |
| 2026-04-25 16:12 | 55.81717 | -6.04992 | 17938 ft | 226 kts | 176° |
| 2026-04-25 16:13 | 55.79630 | -6.04405 | 17912 ft | 230 kts | 180° |
| 2026-04-25 16:13 | 55.78029 | -6.04545 | 17896 ft | 231 kts | 188° |
| 2026-04-25 16:13 | 55.76482 | -6.04978 | 17892 ft | 232 kts | 192° |
| 2026-04-25 16:13 | 55.74903 | -6.05568 | 17889 ft | 233 kts | 194° |
| 2026-04-25 16:14 | 55.73332 | -6.06236 | 17885 ft | 234 kts | 195° |
| 2026-04-25 16:14 | 55.71748 | -6.06922 | 17885 ft | 235 kts | 195° |
| 2026-04-25 16:14 | 55.70167 | -6.07599 | 17895 ft | 235 kts | 195° |
| 2026-04-25 16:14 | 55.68572 | -6.08275 | 17888 ft | 236 kts | 195° |
| 2026-04-25 16:15 | 55.66985 | -6.08944 | 17887 ft | 237 kts | 195° |
| 2026-04-25 16:15 | 55.65388 | -6.09615 | 17884 ft | 237 kts | 195° |
| 2026-04-25 16:15 | 55.63808 | -6.10272 | 17890 ft | 237 kts | 193° |
| 2026-04-25 16:15 | 55.62171 | -6.10180 | 17899 ft | 239 kts | 173° |
| 2026-04-25 16:16 | 55.60523 | -6.09687 | 17894 ft | 241 kts | 173° |
| 2026-04-25 16:16 | 55.58875 | -6.09460 | 17880 ft | 237 kts | 193° |
| 2026-04-25 16:16 | 55.57525 | -6.10834 | 17896 ft | 233 kts | 230° |
| 2026-04-25 16:16 | 55.57032 | -6.13506 | 17892 ft | 234 kts | 277° |
| 2026-04-25 16:17 | 55.57933 | -6.15821 | 17908 ft | 241 kts | 329° |
| 2026-04-25 16:17 | 55.59559 | -6.16050 | 17921 ft | 246 kts | 20° |
| 2026-04-25 16:17 | 55.61089 | -6.14706 | 17920 ft | 248 kts | 24° |
| 2026-04-25 16:17 | 55.62732 | -6.13665 | 17900 ft | 250 kts | 14° |
| 2026-04-25 16:18 | 55.64414 | -6.12931 | 17890 ft | 252 kts | 11° |
| 2026-04-25 16:18 | 55.64976 | -6.12718 | 17892 ft | 252 kts | 10° |
| 2026-04-25 16:18 | 55.67798 | -6.11766 | 17889 ft | 255 kts | 10° |
| 2026-04-25 16:18 | 55.69542 | -6.11113 | 17900 ft | 256 kts | 11° |
| 2026-04-25 16:19 | 55.71279 | -6.10437 | 17895 ft | 257 kts | 11° |
| 2026-04-25 16:19 | 55.73019 | -6.09750 | 17908 ft | 258 kts | 11° |
| 2026-04-25 16:19 | 55.74734 | -6.09067 | 17910 ft | 259 kts | 12° |
| 2026-04-25 16:20 | 55.78255 | -6.07654 | 17905 ft | 262 kts | 11° |
| 2026-04-25 16:20 | 55.80028 | -6.06939 | 17905 ft | 263 kts | 11° |
| 2026-04-25 16:20 | 55.83536 | -6.05252 | 17897 ft | 264 kts | 31° |
| 2026-04-25 16:21 | 55.84991 | -6.03319 | 17913 ft | 264 kts | 38° |
| 2026-04-25 16:21 | 55.86420 | -6.01292 | 17911 ft | 265 kts | 38° |
| 2026-04-25 16:21 | 55.87850 | -5.99336 | 17894 ft | 265 kts | 30° |
| 2026-04-25 16:21 | 55.89583 | -5.98615 | 17901 ft | 258 kts | 352° |
| 2026-04-25 16:22 | 55.91168 | -5.99807 | 17915 ft | 248 kts | 317° |
| 2026-04-25 16:22 | 55.92132 | -6.02268 | 17905 ft | 241 kts | 286° |
| 2026-04-25 16:22 | 55.92222 | -6.05156 | 17913 ft | 235 kts | 255° |
| 2026-04-25 16:22 | 55.91398 | -6.07561 | 17895 ft | 232 kts | 211° |
| 2026-04-25 16:23 | 55.89844 | -6.07856 | 17940 ft | 232 kts | 172° |
| 2026-04-25 16:23 | 55.88238 | -6.07475 | 17911 ft | 233 kts | 175° |
| 2026-04-25 16:23 | 55.86631 | -6.07463 | 17910 ft | 232 kts | 188° |
| 2026-04-25 16:23 | 55.85043 | -6.07904 | 17909 ft | 233 kts | 193° |
| 2026-04-25 16:24 | 55.83467 | -6.08547 | 17909 ft | 234 kts | 196° |
| 2026-04-25 16:24 | 55.81900 | -6.09275 | 17906 ft | 235 kts | 197° |
| 2026-04-25 16:24 | 55.80338 | -6.09981 | 17910 ft | 236 kts | 195° |
| 2026-04-25 16:24 | 55.78746 | -6.10667 | 17899 ft | 237 kts | 195° |
| 2026-04-25 16:25 | 55.77139 | -6.11350 | 17899 ft | 237 kts | 195° |
| 2026-04-25 16:25 | 55.76068 | -6.11802 | 17893 ft | 237 kts | 195° |
| 2026-04-25 16:25 | 55.73932 | -6.12696 | 17912 ft | 238 kts | 195° |
| 2026-04-25 16:25 | 55.72315 | -6.13367 | 17901 ft | 238 kts | 195° |
| 2026-04-25 16:26 | 55.70710 | -6.14031 | 17912 ft | 239 kts | 195° |
| 2026-04-25 16:26 | 55.69091 | -6.14700 | 17903 ft | 239 kts | 195° |
| 2026-04-25 16:26 | 55.67486 | -6.15360 | 17899 ft | 240 kts | 195° |
| 2026-04-25 16:26 | 55.65857 | -6.16030 | 17907 ft | 240 kts | 195° |
| 2026-04-25 16:27 | 55.64230 | -6.16698 | 17905 ft | 240 kts | 195° |
| 2026-04-25 16:27 | 55.62572 | -6.17377 | 17905 ft | 240 kts | 195° |
| 2026-04-25 16:27 | 55.61002 | -6.18018 | 17911 ft | 241 kts | 195° |
| 2026-04-25 16:27 | 55.59335 | -6.18248 | 17896 ft | 244 kts | 171° |
| 2026-04-25 16:28 | 55.57723 | -6.17328 | 17910 ft | 245 kts | 163° |
| 2026-04-25 16:28 | 55.56134 | -6.16294 | 17911 ft | 246 kts | 163° |
| 2026-04-25 16:28 | 55.54493 | -6.15480 | 17903 ft | 242 kts | 182° |
| 2026-04-25 16:28 | 55.52937 | -6.16381 | 17917 ft | 235 kts | 220° |
| 2026-04-25 16:29 | 55.52101 | -6.18751 | 17913 ft | 235 kts | 257° |
| 2026-04-25 16:29 | 55.52323 | -6.21554 | 17917 ft | 240 kts | 295° |
| 2026-04-25 16:29 | 55.53503 | -6.23528 | 17918 ft | 247 kts | 332° |
| 2026-04-25 16:29 | 55.55187 | -6.23930 | 17915 ft | 253 kts | 9° |
| 2026-04-25 16:30 | 55.56901 | -6.23277 | 17916 ft | 255 kts | 13° |
| 2026-04-25 16:30 | 55.58625 | -6.22442 | 17911 ft | 256 kts | 13° |
| 2026-04-25 16:30 | 55.60320 | -6.21707 | 17904 ft | 258 kts | 12° |
| 2026-04-25 16:30 | 55.62059 | -6.20991 | 17900 ft | 258 kts | 11° |
| 2026-04-25 16:31 | 55.63805 | -6.20278 | 17906 ft | 259 kts | 11° |
| 2026-04-25 16:31 | 55.65551 | -6.19566 | 17907 ft | 260 kts | 11° |
| 2026-04-25 16:31 | 55.67306 | -6.18851 | 17907 ft | 260 kts | 11° |
| 2026-04-25 16:31 | 55.69079 | -6.18130 | 17906 ft | 261 kts | 11° |
| 2026-04-25 16:32 | 55.70857 | -6.17406 | 17907 ft | 262 kts | 11° |
| 2026-04-25 16:32 | 55.72627 | -6.16685 | 17911 ft | 263 kts | 11° |
| 2026-04-25 16:32 | 55.74389 | -6.15967 | 17909 ft | 263 kts | 11° |
| 2026-04-25 16:32 | 55.76167 | -6.15242 | 17910 ft | 264 kts | 11° |
| 2026-04-25 16:33 | 55.77949 | -6.14515 | 17906 ft | 265 kts | 11° |
| 2026-04-25 16:33 | 55.79751 | -6.13779 | 17914 ft | 266 kts | 12° |
| 2026-04-25 16:33 | 55.81543 | -6.13046 | 17904 ft | 266 kts | 11° |
| 2026-04-25 16:33 | 55.83353 | -6.12306 | 17905 ft | 266 kts | 11° |
| 2026-04-25 16:34 | 55.85168 | -6.11563 | 17908 ft | 267 kts | 11° |
| 2026-04-25 16:34 | 55.86970 | -6.10824 | 17910 ft | 267 kts | 11° |
| 2026-04-25 16:34 | 55.88775 | -6.10084 | 17906 ft | 267 kts | 11° |
| 2026-04-25 16:34 | 55.90577 | -6.09345 | 17904 ft | 267 kts | 12° |
| 2026-04-25 16:35 | 55.92222 | -6.07911 | 17907 ft | 268 kts | 38° |
| 2026-04-25 16:35 | 55.93656 | -6.05807 | 17909 ft | 268 kts | 39° |
| 2026-04-25 16:35 | 55.95025 | -6.03774 | 17905 ft | 268 kts | 39° |
| 2026-04-25 16:35 | 55.96609 | -6.02020 | 17888 ft | 265 kts | 13° |
| 2026-04-25 16:36 | 55.98265 | -6.02665 | 17767 ft | 252 kts | 312° |
| 2026-04-25 16:36 | 55.98609 | -6.03497 | 17716 ft | 248 kts | 292° |
| 2026-04-25 16:36 | 55.97884 | -6.07856 | 17940 ft | 222 kts | 234° |
| 2026-04-25 16:36 | 55.96810 | -6.09819 | 17912 ft | 225 kts | 214° |
| 2026-04-25 16:37 | 55.95325 | -6.10500 | 17927 ft | 225 kts | 189° |
| 2026-04-25 16:37 | 55.93779 | -6.11021 | 17916 ft | 226 kts | 195° |
| 2026-04-25 16:37 | 55.92300 | -6.11679 | 17909 ft | 228 kts | 196° |
| 2026-04-25 16:37 | 55.90749 | -6.12386 | 17909 ft | 230 kts | 196° |
| 2026-04-25 16:38 | 55.89197 | -6.13074 | 17903 ft | 232 kts | 196° |
| 2026-04-25 16:38 | 55.87631 | -6.13753 | 17906 ft | 234 kts | 195° |
| 2026-04-25 16:38 | 55.86075 | -6.14417 | 17898 ft | 235 kts | 195° |
| 2026-04-25 16:38 | 55.84492 | -6.15085 | 17895 ft | 235 kts | 195° |
| 2026-04-25 16:39 | 55.82896 | -6.15755 | 17905 ft | 236 kts | 195° |
| 2026-04-25 16:39 | 55.81305 | -6.16419 | 17908 ft | 237 kts | 195° |
| 2026-04-25 16:39 | 55.79704 | -6.17085 | 17904 ft | 238 kts | 195° |
| 2026-04-25 16:39 | 55.78093 | -6.17753 | 17911 ft | 238 kts | 195° |
| 2026-04-25 16:40 | 55.76487 | -6.18418 | 17898 ft | 239 kts | 195° |
| 2026-04-25 16:40 | 55.74875 | -6.19084 | 17890 ft | 239 kts | 195° |
| 2026-04-25 16:40 | 55.73263 | -6.19749 | 17902 ft | 239 kts | 195° |
| 2026-04-25 16:40 | 55.71643 | -6.20416 | 17906 ft | 240 kts | 195° |
| 2026-04-25 16:41 | 55.70002 | -6.21092 | 17907 ft | 240 kts | 195° |
| 2026-04-25 16:41 | 55.68356 | -6.21769 | 17907 ft | 241 kts | 195° |
| 2026-04-25 16:41 | 55.65089 | -6.23111 | 17906 ft | 242 kts | 195° |
| 2026-04-25 16:42 | 55.63445 | -6.23784 | 17905 ft | 242 kts | 195° |
| 2026-04-25 16:42 | 55.61808 | -6.24456 | 17904 ft | 242 kts | 195° |
| 2026-04-25 16:42 | 55.60160 | -6.25130 | 17901 ft | 243 kts | 195° |
| 2026-04-25 16:42 | 55.58477 | -6.25819 | 17903 ft | 243 kts | 195° |
| 2026-04-25 16:43 | 55.56843 | -6.26543 | 17912 ft | 243 kts | 199° |
| 2026-04-25 16:43 | 55.55243 | -6.27550 | 17901 ft | 243 kts | 196° |
| 2026-04-25 16:43 | 55.53621 | -6.27639 | 17890 ft | 247 kts | 168° |
| 2026-04-25 16:43 | 55.52117 | -6.26117 | 17910 ft | 251 kts | 146° |
| 2026-04-25 16:44 | 55.50633 | -6.24654 | 17891 ft | 243 kts | 174° |
| 2026-04-25 16:44 | 55.49173 | -6.25528 | 17923 ft | 228 kts | 231° |
| 2026-04-25 16:44 | 55.48821 | -6.28141 | 17923 ft | 229 kts | 286° |
| 2026-04-25 16:44 | 55.49969 | -6.29986 | 17944 ft | 239 kts | 345° |
| 2026-04-25 16:45 | 55.51630 | -6.30163 | 17936 ft | 244 kts | 356° |
| 2026-04-25 16:45 | 55.53336 | -6.30106 | 17908 ft | 248 kts | 1° |
| 2026-04-25 16:45 | 55.55025 | -6.29853 | 17906 ft | 251 kts | 4° |
| 2026-04-25 16:45 | 55.56757 | -6.29425 | 17899 ft | 253 kts | 7° |
| 2026-04-25 16:46 | 55.58485 | -6.28878 | 17899 ft | 254 kts | 9° |
| 2026-04-25 16:46 | 55.60225 | -6.28240 | 17901 ft | 255 kts | 11° |
| 2026-04-25 16:46 | 55.61935 | -6.27556 | 17904 ft | 257 kts | 11° |
| 2026-04-25 16:46 | 55.62505 | -6.27330 | 17903 ft | 257 kts | 11° |
| 2026-04-25 16:47 | 55.65421 | -6.26175 | 17905 ft | 259 kts | 11° |
| 2026-04-25 16:47 | 55.67165 | -6.25476 | 17907 ft | 260 kts | 11° |
| 2026-04-25 16:47 | 55.68925 | -6.24769 | 17906 ft | 261 kts | 11° |
| 2026-04-25 16:47 | 55.70695 | -6.24057 | 17906 ft | 262 kts | 11° |
| 2026-04-25 16:48 | 55.72482 | -6.23335 | 17906 ft | 263 kts | 11° |
| 2026-04-25 16:48 | 55.74259 | -6.22617 | 17906 ft | 263 kts | 11° |
| 2026-04-25 16:48 | 55.76019 | -6.21905 | 17907 ft | 264 kts | 11° |
| 2026-04-25 16:48 | 55.77803 | -6.21181 | 17913 ft | 265 kts | 11° |
| 2026-04-25 16:49 | 55.79594 | -6.20455 | 17912 ft | 266 kts | 11° |
| 2026-04-25 16:49 | 55.81404 | -6.19719 | 17913 ft | 267 kts | 11° |
| 2026-04-25 16:49 | 55.83193 | -6.18992 | 17904 ft | 267 kts | 11° |
| 2026-04-25 16:49 | 55.85011 | -6.18251 | 17904 ft | 267 kts | 11° |
| 2026-04-25 16:50 | 55.86839 | -6.17507 | 17912 ft | 268 kts | 11° |
| 2026-04-25 16:50 | 55.88641 | -6.16772 | 17904 ft | 269 kts | 11° |
| 2026-04-25 16:50 | 55.90453 | -6.16031 | 17898 ft | 269 kts | 11° |
| 2026-04-25 16:50 | 55.92270 | -6.15293 | 17894 ft | 268 kts | 10° |
| 2026-04-25 16:51 | 55.94043 | -6.14395 | 17896 ft | 269 kts | 29° |
| 2026-04-25 16:51 | 55.95447 | -6.12236 | 17912 ft | 269 kts | 49° |
| 2026-04-25 16:51 | 55.96597 | -6.09770 | 17914 ft | 269 kts | 49° |
| 2026-04-25 16:51 | 55.97577 | -6.08387 | 17890 ft | 267 kts | 24° |
| 2026-04-25 16:52 | 55.99738 | -6.09070 | 17921 ft | 243 kts | 307° |
| 2026-04-25 16:52 | 56.00150 | -6.11800 | 17942 ft | 232 kts | 261° |
| 2026-04-25 16:52 | 55.99435 | -6.14275 | 17912 ft | 230 kts | 224° |
| 2026-04-25 16:52 | 55.98121 | -6.15859 | 17918 ft | 232 kts | 207° |
| 2026-04-25 16:53 | 55.94987 | -6.17362 | 17896 ft | 236 kts | 195° |
| 2026-04-25 16:53 | 55.93395 | -6.18036 | 17897 ft | 237 kts | 195° |
| 2026-04-25 16:53 | 55.91803 | -6.18704 | 17903 ft | 238 kts | 195° |
| 2026-04-25 16:54 | 55.90194 | -6.19376 | 17905 ft | 239 kts | 195° |
| 2026-04-25 16:54 | 55.88578 | -6.20048 | 17906 ft | 240 kts | 195° |
| 2026-04-25 16:54 | 55.86972 | -6.20713 | 17900 ft | 241 kts | 195° |
| 2026-04-25 16:54 | 55.85342 | -6.21388 | 17894 ft | 242 kts | 195° |
| 2026-04-25 16:55 | 55.83694 | -6.22068 | 17894 ft | 242 kts | 195° |
| 2026-04-25 16:55 | 55.82063 | -6.22741 | 17903 ft | 243 kts | 195° |
| 2026-04-25 16:55 | 55.80422 | -6.23417 | 17894 ft | 243 kts | 195° |
| 2026-04-25 16:55 | 55.78772 | -6.24095 | 17890 ft | 244 kts | 195° |
| 2026-04-25 16:56 | 55.77133 | -6.24769 | 17886 ft | 244 kts | 195° |
| 2026-04-25 16:56 | 55.75491 | -6.25443 | 17884 ft | 243 kts | 195° |
| 2026-04-25 16:56 | 55.73873 | -6.26106 | 17873 ft | 242 kts | 195° |
| 2026-04-25 16:56 | 55.72233 | -6.26778 | 17888 ft | 242 kts | 195° |
| 2026-04-25 16:57 | 55.70599 | -6.27448 | 17889 ft | 241 kts | 195° |
| 2026-04-25 16:57 | 55.70064 | -6.27666 | 17888 ft | 241 kts | 195° |
| 2026-04-25 16:57 | 55.67387 | -6.28761 | 17890 ft | 241 kts | 195° |
| 2026-04-25 16:57 | 55.65760 | -6.29426 | 17892 ft | 241 kts | 195° |
| 2026-04-25 16:58 | 55.64135 | -6.30089 | 17890 ft | 241 kts | 195° |
| 2026-04-25 16:58 | 55.62511 | -6.30751 | 17896 ft | 241 kts | 195° |
| 2026-04-25 16:58 | 55.60869 | -6.31421 | 17888 ft | 241 kts | 195° |
| 2026-04-25 16:58 | 55.59230 | -6.32091 | 17889 ft | 241 kts | 195° |
| 2026-04-25 16:59 | 55.57605 | -6.32756 | 17890 ft | 242 kts | 195° |
| 2026-04-25 16:59 | 55.55943 | -6.32689 | 17883 ft | 246 kts | 165° |
| 2026-04-25 16:59 | 55.54434 | -6.31568 | 17899 ft | 247 kts | 160° |
| 2026-04-25 16:59 | 55.52814 | -6.30567 | 17879 ft | 242 kts | 179° |
| 2026-04-25 17:00 | 55.51398 | -6.31632 | 17886 ft | 228 kts | 235° |
| 2026-04-25 17:00 | 55.51323 | -6.34284 | 17870 ft | 229 kts | 298° |
| 2026-04-25 17:00 | 55.52647 | -6.35723 | 17926 ft | 235 kts | 346° |
| 2026-04-25 17:00 | 55.54288 | -6.35956 | 17899 ft | 241 kts | 360° |
| 2026-04-25 17:01 | 55.55956 | -6.35793 | 17892 ft | 243 kts | 2° |
| 2026-04-25 17:01 | 55.57643 | -6.35510 | 17885 ft | 245 kts | 4° |
| 2026-04-25 17:01 | 55.59320 | -6.35098 | 17892 ft | 246 kts | 7° |
| 2026-04-25 17:01 | 55.60994 | -6.34580 | 17888 ft | 248 kts | 8° |
| 2026-04-25 17:02 | 55.62690 | -6.33975 | 17889 ft | 249 kts | 10° |
| 2026-04-25 17:02 | 55.64376 | -6.33314 | 17891 ft | 250 kts | 11° |
| 2026-04-25 17:02 | 55.65973 | -6.32676 | 17899 ft | 250 kts | 11° |
| 2026-04-25 17:02 | 55.67702 | -6.31979 | 17895 ft | 251 kts | 11° |
| 2026-04-25 17:03 | 55.69400 | -6.31292 | 17896 ft | 251 kts | 11° |
| 2026-04-25 17:03 | 55.71079 | -6.30609 | 17899 ft | 252 kts | 11° |
| 2026-04-25 17:03 | 55.72777 | -6.29916 | 17903 ft | 252 kts | 11° |
| 2026-04-25 17:03 | 55.74488 | -6.29217 | 17910 ft | 253 kts | 11° |
| 2026-04-25 17:04 | 55.76192 | -6.28520 | 17917 ft | 254 kts | 11° |
| 2026-04-25 17:04 | 55.77904 | -6.27818 | 17894 ft | 254 kts | 11° |
| 2026-04-25 17:04 | 55.79599 | -6.27122 | 17904 ft | 254 kts | 11° |
| 2026-04-25 17:04 | 55.81308 | -6.26420 | 17910 ft | 255 kts | 11° |
| 2026-04-25 17:05 | 55.83032 | -6.25711 | 17905 ft | 256 kts | 11° |
| 2026-04-25 17:05 | 55.86524 | -6.24272 | 17901 ft | 256 kts | 11° |
| 2026-04-25 17:05 | 55.88262 | -6.23555 | 17909 ft | 257 kts | 11° |
| 2026-04-25 17:06 | 55.89991 | -6.22840 | 17909 ft | 257 kts | 11° |
| 2026-04-25 17:06 | 55.91714 | -6.22086 | 17901 ft | 258 kts | 18° |
| 2026-04-25 17:06 | 55.93137 | -6.20225 | 17913 ft | 257 kts | 48° |
| 2026-04-25 17:06 | 55.94310 | -6.17817 | 17908 ft | 258 kts | 47° |
| 2026-04-25 17:07 | 55.95798 | -6.16240 | 17895 ft | 250 kts | 3° |
| 2026-04-25 17:07 | 55.97280 | -6.17298 | 17927 ft | 229 kts | 303° |
| 2026-04-25 17:07 | 55.97528 | -6.19807 | 17940 ft | 217 kts | 252° |
| 2026-04-25 17:07 | 55.96627 | -6.21888 | 17942 ft | 216 kts | 219° |
| 2026-04-25 17:08 | 55.95344 | -6.23296 | 17916 ft | 220 kts | 208° |
| 2026-04-25 17:08 | 55.93925 | -6.24344 | 17903 ft | 223 kts | 202° |
| 2026-04-25 17:08 | 55.92448 | -6.25165 | 17902 ft | 224 kts | 198° |
| 2026-04-25 17:08 | 55.90939 | -6.25867 | 17905 ft | 226 kts | 197° |
| 2026-04-25 17:09 | 55.89406 | -6.26502 | 17899 ft | 227 kts | 196° |
| 2026-04-25 17:09 | 55.87877 | -6.27125 | 17900 ft | 227 kts | 195° |
| 2026-04-25 17:09 | 55.86341 | -6.27751 | 17907 ft | 228 kts | 195° |
| 2026-04-25 17:09 | 55.84805 | -6.28379 | 17901 ft | 229 kts | 195° |
| 2026-04-25 17:10 | 55.83259 | -6.29011 | 17903 ft | 229 kts | 195° |
| 2026-04-25 17:10 | 55.81709 | -6.29646 | 17896 ft | 229 kts | 195° |
| 2026-04-25 17:10 | 55.80209 | -6.30259 | 17900 ft | 230 kts | 195° |
| 2026-04-25 17:10 | 55.78647 | -6.30898 | 17905 ft | 230 kts | 195° |
| 2026-04-25 17:11 | 55.77083 | -6.31538 | 17905 ft | 230 kts | 195° |
| 2026-04-25 17:11 | 55.75540 | -6.32168 | 17906 ft | 231 kts | 195° |
| 2026-04-25 17:11 | 55.73984 | -6.32804 | 17906 ft | 231 kts | 195° |
| 2026-04-25 17:11 | 55.72424 | -6.33440 | 17906 ft | 231 kts | 196° |
| 2026-04-25 17:12 | 55.70863 | -6.34077 | 17906 ft | 232 kts | 196° |
| 2026-04-25 17:12 | 55.69300 | -6.34714 | 17906 ft | 232 kts | 196° |
| 2026-04-25 17:12 | 55.67752 | -6.35344 | 17906 ft | 232 kts | 196° |
| 2026-04-25 17:12 | 55.66171 | -6.35988 | 17905 ft | 233 kts | 196° |
| 2026-04-25 17:13 | 55.64602 | -6.36625 | 17905 ft | 233 kts | 195° |
| 2026-04-25 17:13 | 55.64084 | -6.36836 | 17909 ft | 233 kts | 195° |
| 2026-04-25 17:13 | 55.61454 | -6.37536 | 17889 ft | 237 kts | 172° |
| 2026-04-25 17:13 | 55.59981 | -6.36250 | 17911 ft | 240 kts | 150° |
| 2026-04-25 17:14 | 55.58528 | -6.34886 | 17899 ft | 234 kts | 172° |
| 2026-04-25 17:14 | 55.57096 | -6.35560 | 17922 ft | 218 kts | 227° |
| 2026-04-25 17:14 | 55.56466 | -6.37937 | 17936 ft | 219 kts | 264° |
| 2026-04-25 17:14 | 55.57092 | -6.40287 | 17927 ft | 227 kts | 326° |
| 2026-04-25 17:15 | 55.58623 | -6.40956 | 17947 ft | 233 kts | 351° |
| 2026-04-25 17:15 | 55.60259 | -6.41027 | 17913 ft | 239 kts | 360° |
| 2026-04-25 17:15 | 55.61859 | -6.40764 | 17907 ft | 241 kts | 5° |
| 2026-04-25 17:15 | 55.63530 | -6.40281 | 17908 ft | 244 kts | 8° |
| 2026-04-25 17:16 | 55.65193 | -6.39682 | 17898 ft | 245 kts | 10° |
| 2026-04-25 17:16 | 55.66852 | -6.39010 | 17904 ft | 246 kts | 11° |
| 2026-04-25 17:16 | 55.68515 | -6.38321 | 17905 ft | 247 kts | 11° |
| 2026-04-25 17:16 | 55.70185 | -6.37630 | 17905 ft | 248 kts | 11° |
| 2026-04-25 17:17 | 55.71857 | -6.36939 | 17906 ft | 249 kts | 11° |
| 2026-04-25 17:17 | 55.73537 | -6.36246 | 17907 ft | 250 kts | 11° |
| 2026-04-25 17:17 | 55.75230 | -6.35547 | 17908 ft | 251 kts | 11° |
| 2026-04-25 17:17 | 55.76908 | -6.34855 | 17913 ft | 252 kts | 11° |
| 2026-04-25 17:18 | 55.78609 | -6.34153 | 17910 ft | 253 kts | 11° |
| 2026-04-25 17:18 | 55.80335 | -6.33441 | 17908 ft | 253 kts | 11° |
| 2026-04-25 17:18 | 55.81990 | -6.32757 | 17909 ft | 254 kts | 11° |
| 2026-04-25 17:18 | 55.83712 | -6.32045 | 17908 ft | 255 kts | 11° |
| 2026-04-25 17:19 | 55.85432 | -6.31333 | 17911 ft | 255 kts | 11° |
| 2026-04-25 17:19 | 55.87155 | -6.30619 | 17906 ft | 256 kts | 11° |
| 2026-04-25 17:19 | 55.88882 | -6.29898 | 17906 ft | 256 kts | 11° |
| 2026-04-25 17:19 | 55.90610 | -6.29152 | 17907 ft | 257 kts | 16° |
| 2026-04-25 17:20 | 55.92067 | -6.27354 | 17922 ft | 259 kts | 47° |
| 2026-04-25 17:20 | 55.93245 | -6.24933 | 17908 ft | 260 kts | 49° |
| 2026-04-25 17:20 | 55.94572 | -6.22949 | 17894 ft | 255 kts | 20° |
| 2026-04-25 17:20 | 55.96194 | -6.23187 | 17922 ft | 236 kts | 323° |
| 2026-04-25 17:21 | 55.97004 | -6.25483 | 17922 ft | 221 kts | 273° |
| 2026-04-25 17:21 | 55.96670 | -6.28064 | 17923 ft | 217 kts | 238° |
| 2026-04-25 17:21 | 55.95644 | -6.29899 | 17924 ft | 218 kts | 215° |
| 2026-04-25 17:21 | 55.94269 | -6.31110 | 17909 ft | 221 kts | 202° |
| 2026-04-25 17:22 | 55.92777 | -6.31785 | 17906 ft | 224 kts | 194° |
| 2026-04-25 17:22 | 55.91770 | -6.32159 | 17902 ft | 224 kts | 195° |
| 2026-04-25 17:22 | 55.89745 | -6.32972 | 17902 ft | 226 kts | 196° |
| 2026-04-25 17:22 | 55.88220 | -6.33594 | 17902 ft | 227 kts | 196° |
| 2026-04-25 17:23 | 55.86689 | -6.34220 | 17909 ft | 228 kts | 196° |
| 2026-04-25 17:23 | 55.85151 | -6.34851 | 17898 ft | 229 kts | 196° |
| 2026-04-25 17:23 | 55.83630 | -6.35476 | 17901 ft | 229 kts | 196° |
| 2026-04-25 17:23 | 55.82090 | -6.36108 | 17902 ft | 230 kts | 196° |
| 2026-04-25 17:24 | 55.80540 | -6.36745 | 17908 ft | 231 kts | 196° |
| 2026-04-25 17:24 | 55.78982 | -6.37385 | 17899 ft | 231 kts | 196° |
| 2026-04-25 17:24 | 55.77426 | -6.38023 | 17901 ft | 231 kts | 196° |
| 2026-04-25 17:24 | 55.75864 | -6.38664 | 17903 ft | 232 kts | 196° |
| 2026-04-25 17:25 | 55.74305 | -6.39303 | 17904 ft | 232 kts | 196° |
| 2026-04-25 17:25 | 55.72734 | -6.39947 | 17909 ft | 233 kts | 196° |
| 2026-04-25 17:25 | 55.71164 | -6.40589 | 17901 ft | 233 kts | 196° |
| 2026-04-25 17:25 | 55.69594 | -6.41232 | 17901 ft | 233 kts | 196° |
| 2026-04-25 17:26 | 55.68028 | -6.41872 | 17899 ft | 233 kts | 196° |
| 2026-04-25 17:26 | 55.66455 | -6.42514 | 17902 ft | 233 kts | 196° |
| 2026-04-25 17:26 | 55.64895 | -6.42808 | 17888 ft | 237 kts | 173° |
| 2026-04-25 17:26 | 55.63421 | -6.41512 | 17921 ft | 242 kts | 148° |
| 2026-04-25 17:27 | 55.61980 | -6.40038 | 17900 ft | 236 kts | 171° |
| 2026-04-25 17:27 | 55.60502 | -6.40668 | 17917 ft | 221 kts | 225° |
| 2026-04-25 17:27 | 55.60022 | -6.43080 | 17931 ft | 219 kts | 278° |
| 2026-04-25 17:27 | 55.60182 | -6.43936 | 17931 ft | 221 kts | 296° |
| 2026-04-25 17:28 | 55.62408 | -6.46117 | 17922 ft | 235 kts | 347° |
| 2026-04-25 17:28 | 55.64043 | -6.46316 | 17911 ft | 240 kts | 359° |
| 2026-04-25 17:28 | 55.65707 | -6.46064 | 17910 ft | 243 kts | 5° |
| 2026-04-25 17:28 | 55.67359 | -6.45565 | 17910 ft | 246 kts | 9° |
| 2026-04-25 17:29 | 55.69028 | -6.44936 | 17908 ft | 248 kts | 11° |
| 2026-04-25 17:29 | 55.70705 | -6.44225 | 17900 ft | 249 kts | 11° |
| 2026-04-25 17:29 | 55.72379 | -6.43512 | 17904 ft | 250 kts | 11° |
| 2026-04-25 17:29 | 55.74055 | -6.42814 | 17902 ft | 252 kts | 11° |
| 2026-04-25 17:30 | 55.75764 | -6.42104 | 17899 ft | 252 kts | 11° |
| 2026-04-25 17:30 | 55.77466 | -6.41398 | 17907 ft | 253 kts | 11° |
| 2026-04-25 17:30 | 55.79186 | -6.40686 | 17899 ft | 254 kts | 11° |
| 2026-04-25 17:30 | 55.80939 | -6.39962 | 17914 ft | 254 kts | 11° |
| 2026-04-25 17:31 | 55.82655 | -6.39252 | 17907 ft | 255 kts | 11° |
| 2026-04-25 17:31 | 55.84391 | -6.38534 | 17904 ft | 256 kts | 11° |
| 2026-04-25 17:31 | 55.86110 | -6.37869 | 17903 ft | 256 kts | 6° |
| 2026-04-25 17:31 | 55.87763 | -6.36902 | 17898 ft | 258 kts | 33° |
| 2026-04-25 17:32 | 55.89080 | -6.34775 | 17910 ft | 259 kts | 52° |
| 2026-04-25 17:32 | 55.90142 | -6.32176 | 17898 ft | 259 kts | 47° |
| 2026-04-25 17:32 | 55.91627 | -6.30770 | 17899 ft | 247 kts | 359° |
| 2026-04-25 17:32 | 55.93133 | -6.31784 | 17930 ft | 231 kts | 312° |
| 2026-04-25 17:33 | 55.93809 | -6.34216 | 17922 ft | 220 kts | 272° |
| 2026-04-25 17:33 | 55.93215 | -6.36539 | 17934 ft | 214 kts | 225° |
| 2026-04-25 17:33 | 55.91953 | -6.37938 | 17920 ft | 218 kts | 206° |
| 2026-04-25 17:33 | 55.90532 | -6.38911 | 17912 ft | 221 kts | 202° |
| 2026-04-25 17:34 | 55.89056 | -6.39720 | 17903 ft | 223 kts | 199° |
| 2026-04-25 17:34 | 55.87554 | -6.40426 | 17900 ft | 225 kts | 197° |
| 2026-04-25 17:34 | 55.86049 | -6.41067 | 17899 ft | 227 kts | 197° |
| 2026-04-25 17:34 | 55.84553 | -6.41692 | 17902 ft | 228 kts | 197° |
| 2026-04-25 17:35 | 55.83016 | -6.42332 | 17906 ft | 229 kts | 196° |
| 2026-04-25 17:35 | 55.81479 | -6.42971 | 17902 ft | 230 kts | 196° |
| 2026-04-25 17:35 | 55.79931 | -6.43612 | 17903 ft | 230 kts | 196° |
| 2026-04-25 17:35 | 55.78364 | -6.44261 | 17893 ft | 231 kts | 196° |
| 2026-04-25 17:36 | 55.76809 | -6.44904 | 17896 ft | 231 kts | 196° |
| 2026-04-25 17:36 | 55.75246 | -6.45549 | 17889 ft | 232 kts | 196° |
| 2026-04-25 17:36 | 55.73682 | -6.46194 | 17891 ft | 232 kts | 196° |
| 2026-04-25 17:36 | 55.72140 | -6.46829 | 17891 ft | 233 kts | 196° |
| 2026-04-25 17:37 | 55.70564 | -6.47478 | 17894 ft | 233 kts | 196° |
| 2026-04-25 17:37 | 55.68990 | -6.48122 | 17894 ft | 234 kts | 196° |
| 2026-04-25 17:37 | 55.67404 | -6.48769 | 17887 ft | 234 kts | 196° |
| 2026-04-25 17:37 | 55.65855 | -6.49401 | 17891 ft | 234 kts | 196° |
| 2026-04-25 17:38 | 55.64247 | -6.49781 | 17869 ft | 239 kts | 175° |
| 2026-04-25 17:38 | 55.63209 | -6.49158 | 17890 ft | 242 kts | 158° |
| 2026-04-25 17:38 | 55.61228 | -6.47328 | 17882 ft | 242 kts | 159° |
| 2026-04-25 17:38 | 55.59627 | -6.47007 | 17883 ft | 230 kts | 198° |
| 2026-04-25 17:39 | 55.58365 | -6.48517 | 17892 ft | 223 kts | 236° |
| 2026-04-25 17:39 | 55.57997 | -6.51121 | 17899 ft | 225 kts | 276° |
| 2026-04-25 17:39 | 55.58744 | -6.53495 | 17901 ft | 234 kts | 324° |
| 2026-04-25 17:39 | 55.60280 | -6.54261 | 17915 ft | 241 kts | 351° |
| 2026-04-25 17:40 | 55.61963 | -6.54257 | 17894 ft | 246 kts | 2° |
| 2026-04-25 17:40 | 55.63662 | -6.53837 | 17890 ft | 249 kts | 8° |
| 2026-04-25 17:40 | 55.65333 | -6.53223 | 17874 ft | 251 kts | 10° |
| 2026-04-25 17:40 | 55.67017 | -6.52510 | 17881 ft | 252 kts | 12° |
| 2026-04-25 17:41 | 55.68732 | -6.51762 | 17881 ft | 253 kts | 11° |
| 2026-04-25 17:41 | 55.70425 | -6.51029 | 17879 ft | 253 kts | 11° |
| 2026-04-25 17:41 | 55.72134 | -6.50286 | 17887 ft | 254 kts | 11° |
| 2026-04-25 17:41 | 55.73862 | -6.49538 | 17889 ft | 255 kts | 11° |
| 2026-04-25 17:42 | 55.75564 | -6.48774 | 17887 ft | 256 kts | 12° |
| 2026-04-25 17:42 | 55.77288 | -6.47941 | 17881 ft | 257 kts | 13° |
| 2026-04-25 17:42 | 55.79028 | -6.47203 | 17888 ft | 257 kts | 10° |
| 2026-04-25 17:42 | 55.80745 | -6.46518 | 17892 ft | 258 kts | 10° |
| 2026-04-25 17:43 | 55.82491 | -6.45823 | 17891 ft | 259 kts | 10° |
| 2026-04-25 17:43 | 55.84250 | -6.45124 | 17888 ft | 259 kts | 10° |
| 2026-04-25 17:43 | 55.85997 | -6.44431 | 17881 ft | 260 kts | 11° |
| 2026-04-25 17:43 | 55.87604 | -6.43041 | 17879 ft | 262 kts | 39° |
| 2026-04-25 17:44 | 55.88802 | -6.40607 | 17754 ft | 269 kts | 59° |
| 2026-04-25 17:44 | 55.89404 | -6.37399 | 17408 ft | 288 kts | 86° |
| 2026-04-25 17:44 | 55.89121 | -6.33815 | 17205 ft | 297 kts | 114° |
| 2026-04-25 17:44 | 55.87999 | -6.30832 | 17187 ft | 296 kts | 139° |
| 2026-04-25 17:45 | 55.86894 | -6.29443 | 17180 ft | 295 kts | 156° |
| 2026-04-25 17:45 | 55.85611 | -6.28620 | 17195 ft | 294 kts | 168° |
| 2026-04-25 17:45 | 55.82253 | -6.27766 | 17173 ft | 297 kts | 178° |
| 2026-04-25 17:45 | 55.80260 | -6.27490 | 17168 ft | 299 kts | 178° |
| 2026-04-25 17:46 | 55.78192 | -6.27154 | 17183 ft | 301 kts | 177° |
| 2026-04-25 17:46 | 55.76115 | -6.26746 | 17189 ft | 303 kts | 176° |
| 2026-04-25 17:46 | 55.74038 | -6.26287 | 17175 ft | 304 kts | 175° |
| 2026-04-25 17:46 | 55.71939 | -6.25789 | 17188 ft | 304 kts | 175° |
| 2026-04-25 17:47 | 55.69943 | -6.24920 | 17179 ft | 308 kts | 162° |
| 2026-04-25 17:47 | 55.68048 | -6.23135 | 17180 ft | 313 kts | 147° |
| 2026-04-25 17:47 | 55.66448 | -6.20492 | 17183 ft | 317 kts | 133° |
| 2026-04-25 17:47 | 55.65123 | -6.17529 | 17189 ft | 318 kts | 130° |
| 2026-04-25 17:48 | 55.62512 | -6.11196 | 17194 ft | 320 kts | 128° |
| 2026-04-25 17:48 | 55.61209 | -6.08057 | 17195 ft | 320 kts | 129° |
| 2026-04-25 17:48 | 55.59893 | -6.04904 | 17182 ft | 321 kts | 129° |
| 2026-04-25 17:49 | 55.58571 | -6.01751 | 17189 ft | 321 kts | 129° |
| 2026-04-25 17:49 | 55.57256 | -5.98620 | 17186 ft | 321 kts | 129° |
| 2026-04-25 17:49 | 55.55928 | -5.95466 | 17185 ft | 321 kts | 129° |
| 2026-04-25 17:49 | 55.54608 | -5.92336 | 17183 ft | 321 kts | 129° |
| 2026-04-25 17:50 | 55.53275 | -5.89181 | 17180 ft | 321 kts | 129° |
| 2026-04-25 17:50 | 55.51946 | -5.86042 | 17185 ft | 321 kts | 129° |
| 2026-04-25 17:50 | 55.50623 | -5.82918 | 17182 ft | 321 kts | 129° |
| 2026-04-25 17:50 | 55.49332 | -5.79877 | 17179 ft | 320 kts | 129° |
| 2026-04-25 17:51 | 55.47998 | -5.76737 | 17181 ft | 320 kts | 129° |
| 2026-04-25 17:51 | 55.46674 | -5.73629 | 16842 ft | 321 kts | 129° |
| 2026-04-25 17:51 | 55.45357 | -5.70540 | 16478 ft | 317 kts | 129° |
| 2026-04-25 17:51 | 55.44055 | -5.67420 | 16095 ft | 316 kts | 125° |
| 2026-04-25 17:52 | 55.43039 | -5.64032 | 15714 ft | 316 kts | 114° |
| 2026-04-25 17:52 | 55.42784 | -5.62845 | 15592 ft | 315 kts | 111° |
| 2026-04-25 17:52 | 55.41866 | -5.56685 | 14977 ft | 313 kts | 104° |
| 2026-04-25 17:52 | 55.41405 | -5.53110 | 14616 ft | 311 kts | 104° |
| 2026-04-25 17:53 | 55.40931 | -5.49428 | 14240 ft | 309 kts | 104° |
| 2026-04-25 17:53 | 55.40455 | -5.45765 | 13871 ft | 308 kts | 104° |
| 2026-04-25 17:53 | 55.39980 | -5.42130 | 13504 ft | 306 kts | 104° |
| 2026-04-25 17:53 | 55.39501 | -5.38501 | 13127 ft | 305 kts | 104° |
| 2026-04-25 17:54 | 55.39024 | -5.34904 | 12747 ft | 304 kts | 105° |
| 2026-04-25 17:54 | 55.38611 | -5.31801 | 12425 ft | 303 kts | 105° |
| 2026-04-25 17:54 | 55.38099 | -5.27961 | 12017 ft | 302 kts | 105° |
| 2026-04-25 17:54 | 55.37623 | -5.24407 | 11652 ft | 301 kts | 105° |
| 2026-04-25 17:55 | 55.37148 | -5.20877 | 11290 ft | 300 kts | 105° |
| 2026-04-25 17:55 | 55.36674 | -5.17355 | 11204 ft | 290 kts | 105° |
| 2026-04-25 17:55 | 55.36220 | -5.13981 | 11185 ft | 280 kts | 105° |
| 2026-04-25 17:55 | 55.35791 | -5.10813 | 11173 ft | 272 kts | 105° |
| 2026-04-25 17:56 | 55.35360 | -5.07638 | 11175 ft | 265 kts | 105° |
| 2026-04-25 17:56 | 55.34940 | -5.04551 | 11191 ft | 260 kts | 105° |
| 2026-04-25 17:56 | 55.34526 | -5.01512 | 11185 ft | 256 kts | 105° |
| 2026-04-25 17:56 | 55.34112 | -4.98486 | 10968 ft | 257 kts | 105° |
| 2026-04-25 17:57 | 55.33694 | -4.95445 | 10595 ft | 257 kts | 105° |
| 2026-04-25 17:57 | 55.33279 | -4.92424 | 10229 ft | 258 kts | 104° |
| 2026-04-25 17:57 | 55.32861 | -4.89382 | 9846 ft | 258 kts | 104° |
| 2026-04-25 17:57 | 55.32720 | -4.88360 | 9717 ft | 258 kts | 104° |
| 2026-04-25 17:58 | 55.32034 | -4.83386 | 9110 ft | 258 kts | 104° |
| 2026-04-25 17:58 | 55.31615 | -4.80349 | 8731 ft | 258 kts | 104° |
| 2026-04-25 17:58 | 55.31316 | -4.77269 | 8342 ft | 258 kts | 97° |
| 2026-04-25 17:58 | 55.31178 | -4.74201 | 7982 ft | 258 kts | 94° |
| 2026-04-25 17:59 | 55.31061 | -4.71085 | 7627 ft | 257 kts | 94° |
| 2026-04-25 17:59 | 55.30944 | -4.67987 | 7260 ft | 257 kts | 94° |
| 2026-04-25 17:59 | 55.30826 | -4.64897 | 6882 ft | 256 kts | 94° |
| 2026-04-25 17:59 | 55.30706 | -4.61809 | 6529 ft | 255 kts | 94° |
| 2026-04-25 18:00 | 55.30586 | -4.58737 | 6158 ft | 254 kts | 94° |
| 2026-04-25 18:00 | 55.30467 | -4.55711 | 6027 ft | 244 kts | 94° |
| 2026-04-25 18:00 | 55.30353 | -4.52805 | 6000 ft | 232 kts | 94° |
| 2026-04-25 18:00 | 55.30246 | -4.50091 | 6012 ft | 230 kts | 94° |
| 2026-04-25 18:01 | 55.30135 | -4.47319 | 6009 ft | 227 kts | 94° |
| 2026-04-25 18:01 | 55.30025 | -4.44583 | 6011 ft | 225 kts | 94° |
| 2026-04-25 18:01 | 55.29916 | -4.41886 | 6024 ft | 224 kts | 93° |
| 2026-04-25 18:01 | 55.29805 | -4.39172 | 6030 ft | 224 kts | 93° |
| 2026-04-25 18:02 | 55.29701 | -4.36468 | 6024 ft | 222 kts | 91° |
| 2026-04-25 18:02 | 55.29853 | -4.33973 | 6022 ft | 222 kts | 76° |
| 2026-04-25 18:02 | 55.30485 | -4.31394 | 6029 ft | 224 kts | 57° |
| 2026-04-25 18:02 | 55.31460 | -4.29447 | 6022 ft | 226 kts | 40° |
| 2026-04-25 18:03 | 55.32637 | -4.28019 | 6033 ft | 226 kts | 32° |
| 2026-04-25 18:03 | 55.34079 | -4.26461 | 5807 ft | 228 kts | 31° |
| 2026-04-25 18:03 | 55.35498 | -4.25417 | 5515 ft | 219 kts | 13° |
| 2026-04-25 18:03 | 55.36921 | -4.25205 | 5338 ft | 206 kts | 355° |
| 2026-04-25 18:04 | 55.38282 | -4.25774 | 5108 ft | 199 kts | 337° |
| 2026-04-25 18:04 | 55.39402 | -4.26985 | 4844 ft | 198 kts | 319° |
| 2026-04-25 18:04 | 55.40281 | -4.28811 | 4529 ft | 200 kts | 303° |
| 2026-04-25 18:04 | 55.41008 | -4.30904 | 4182 ft | 202 kts | 301° |
| 2026-04-25 18:05 | 55.41721 | -4.32968 | 3862 ft | 202 kts | 302° |
| 2026-04-25 18:05 | 55.42448 | -4.35037 | 3543 ft | 201 kts | 302° |
| 2026-04-25 18:05 | 55.43171 | -4.37097 | 3226 ft | 196 kts | 302° |
| 2026-04-25 18:05 | 55.43847 | -4.39031 | 2912 ft | 190 kts | 302° |
| 2026-04-25 18:06 | 55.44528 | -4.40984 | 2607 ft | 184 kts | 302° |
| 2026-04-25 18:06 | 55.45185 | -4.42868 | 2320 ft | 180 kts | 302° |
| 2026-04-25 18:06 | 55.45802 | -4.44642 | 2051 ft | 176 kts | 302° |
| 2026-04-25 18:06 | 55.46430 | -4.46447 | 1779 ft | 172 kts | 303° |
| 2026-04-25 18:07 | 55.47039 | -4.48201 | 1516 ft | 169 kts | 303° |
| 2026-04-25 18:07 | 55.47607 | -4.49838 | 1265 ft | 167 kts | 304° |
| 2026-04-25 18:07 | 55.48220 | -4.51602 | 1006 ft | 159 kts | 303° |
| 2026-04-25 18:07 | 55.48710 | -4.53024 | 794 ft | 139 kts | 303° |
| 2026-04-25 18:08 | 55.49153 | -4.54301 | 604 ft | 125 kts | 305° |
| 2026-04-25 18:08 | 55.49612 | -4.55627 | 409 ft | 111 kts | 305° |
| 2026-04-25 18:08 | 55.49987 | -4.56707 | 252 ft | 109 kts | 304° |
| 2026-04-25 18:08 | 55.50380 | -4.57850 | 89 ft | 107 kts | 305° |
| 2026-04-25 18:09 | 55.50709 | -4.58779 | 68 ft | 57 kts | 302° |
| 2026-04-25 18:09 | 55.50748 | -4.59099 | 65 ft | 24 kts | 248° |
| 2026-04-25 18:09 | 55.50711 | -4.59244 | 65 ft | 0 kts | 243° |
| 2026-04-25 18:10 | 55.50665 | -4.59367 | 65 ft | 14 kts | 232° |
| 2026-04-25 18:10 | 55.50610 | -4.59553 | 62 ft | 21 kts | 248° |
| 2026-04-25 18:10 | 55.50582 | -4.59805 | 60 ft | 8 kts | 243° |
| 2026-04-25 18:10 | 55.50581 | -4.59808 | 61 ft | 0 kts | 243° |